createdAt,value
2018-07-15T00:00:30.116Z,1011.53
2018-07-15T00:01:30.124Z,1011.55
2018-07-15T00:02:30.122Z,1011.58
2018-07-15T00:03:30.078Z,1011.57
2018-07-15T00:04:30.072Z,1011.57
2018-07-15T00:05:30.058Z,1011.56
2018-07-15T00:06:30.047Z,1011.57
2018-07-15T00:07:30.076Z,1011.52
2018-07-15T00:08:30.035Z,1011.56
2018-07-15T00:09:30.011Z,1011.52
2018-07-15T00:10:30.018Z,1011.50
2018-07-15T00:11:29.992Z,1011.55
2018-07-15T00:12:30.001Z,1011.52
2018-07-15T00:13:29.967Z,1011.55
2018-07-15T00:14:29.958Z,1011.53
2018-07-15T00:15:29.965Z,1011.54
2018-07-15T00:16:29.933Z,1011.54
2018-07-15T00:17:29.925Z,1011.58
2018-07-15T00:18:29.932Z,1011.57
2018-07-15T00:19:29.900Z,1011.54
2018-07-15T00:20:29.888Z,1011.54
2018-07-15T00:21:29.883Z,1011.53
2018-07-15T00:22:29.868Z,1011.53
2018-07-15T00:23:29.887Z,1011.53
2018-07-15T00:24:29.853Z,1011.53
2018-07-15T00:25:29.834Z,1011.50
2018-07-15T00:26:29.822Z,1011.49
2018-07-15T00:27:29.815Z,1011.47
2018-07-15T00:28:29.806Z,1011.48
2018-07-15T00:29:29.807Z,1011.54
2018-07-15T00:30:29.777Z,1011.51
2018-07-15T00:31:29.768Z,1011.51
2018-07-15T00:32:29.758Z,1011.50
2018-07-15T00:33:29.747Z,1011.53
2018-07-15T00:34:29.753Z,1011.52
2018-07-15T00:35:29.727Z,1011.55
2018-07-15T00:36:29.713Z,1011.54
2018-07-15T00:37:29.702Z,1011.53
2018-07-15T00:38:29.714Z,1011.53
2018-07-15T00:39:29.681Z,1011.52
2018-07-15T00:40:29.695Z,1011.54
2018-07-15T00:41:29.659Z,1011.53
2018-07-15T00:42:29.648Z,1011.49
2018-07-15T00:43:29.636Z,1011.52
2018-07-15T00:44:29.623Z,1011.52
2018-07-15T00:45:29.620Z,1011.52
2018-07-15T00:46:29.625Z,1011.49
2018-07-15T00:47:29.591Z,1011.50
2018-07-15T00:48:29.609Z,1011.54
2018-07-15T00:49:29.579Z,1011.53
2018-07-15T00:50:29.560Z,1011.51
2018-07-15T00:51:29.553Z,1011.54
2018-07-15T00:52:29.554Z,1011.54
2018-07-15T00:53:29.526Z,1011.54
2018-07-15T00:54:29.513Z,1011.54
2018-07-15T00:55:29.505Z,1011.52
2018-07-15T00:56:29.496Z,1011.51
2018-07-15T00:57:29.987Z,1011.53
2018-07-15T00:58:29.471Z,1011.53
2018-07-15T00:59:29.462Z,1011.50
2018-07-15T01:00:29.450Z,1011.49
2018-07-15T01:01:29.452Z,1011.47
2018-07-15T01:02:29.427Z,1011.49
2018-07-15T01:03:29.446Z,1011.48
2018-07-15T01:04:29.403Z,1011.48
2018-07-15T01:05:29.391Z,1011.49
2018-07-15T01:06:29.391Z,1011.51
2018-07-15T01:07:29.372Z,1011.46
2018-07-15T01:08:29.362Z,1011.49
2018-07-15T01:09:29.368Z,1011.49
2018-07-15T01:10:29.335Z,1011.48
2018-07-15T01:11:29.329Z,1011.46
2018-07-15T01:12:29.317Z,1011.51
2018-07-15T01:13:29.308Z,1011.51
2018-07-15T01:14:29.339Z,1011.54
2018-07-15T01:15:29.281Z,1011.52
2018-07-15T01:16:29.268Z,1011.53
2018-07-15T01:17:29.257Z,1011.48
2018-07-15T01:18:29.247Z,1011.51
2018-07-15T01:19:29.237Z,1011.50
2018-07-15T01:20:29.250Z,1011.47
2018-07-15T01:21:29.213Z,1011.48
2018-07-15T01:22:29.203Z,1011.46
2018-07-15T01:23:29.192Z,1011.45
2018-07-15T01:24:29.201Z,1011.47
2018-07-15T01:25:29.175Z,1011.45
2018-07-15T01:26:29.174Z,1011.50
2018-07-15T01:27:29.149Z,1011.45
2018-07-15T01:28:29.139Z,1011.50
2018-07-15T01:29:29.127Z,1011.47
2018-07-15T01:30:29.116Z,1011.47
2018-07-15T01:31:29.128Z,1011.45
2018-07-15T01:32:29.092Z,1011.47
2018-07-15T01:33:29.084Z,1011.46
2018-07-15T01:34:29.075Z,1011.44
2018-07-15T01:35:29.058Z,1011.46
2018-07-15T01:36:29.056Z,1011.42
2018-07-15T01:37:29.077Z,1011.41
2018-07-15T01:38:29.029Z,1011.45
2018-07-15T01:39:29.017Z,1011.43
2018-07-15T01:40:29.006Z,1011.41
2018-07-15T01:41:28.995Z,1011.45
2018-07-15T01:42:28.981Z,1011.43
2018-07-15T01:43:28.985Z,1011.40
2018-07-15T01:44:28.960Z,1011.41
2018-07-15T01:45:28.950Z,1011.40
2018-07-15T01:46:28.945Z,1011.43
2018-07-15T01:47:28.947Z,1011.40
2018-07-15T01:48:28.941Z,1011.41
2018-07-15T01:49:28.905Z,1011.34
2018-07-15T01:50:28.894Z,1011.41
2018-07-15T01:51:28.885Z,1011.41
2018-07-15T01:52:28.872Z,1011.37
2018-07-15T01:53:28.863Z,1011.38
2018-07-15T01:54:28.881Z,1011.37
2018-07-15T01:55:28.842Z,1011.37
2018-07-15T01:56:28.831Z,1011.35
2018-07-15T01:57:28.819Z,1011.36
2018-07-15T01:58:28.809Z,1011.35
2018-07-15T01:59:28.795Z,1011.33
2018-07-15T02:00:28.828Z,1011.32
2018-07-15T02:01:28.773Z,1011.31
2018-07-15T02:02:28.765Z,1011.32
2018-07-15T02:03:28.757Z,1011.34
2018-07-15T02:04:28.740Z,1011.36
2018-07-15T02:05:28.729Z,1011.36
2018-07-15T02:06:28.736Z,1011.32
2018-07-15T02:07:28.707Z,1011.36
2018-07-15T02:08:28.698Z,1011.36
2018-07-15T02:09:28.688Z,1011.35
2018-07-15T02:10:28.718Z,1011.32
2018-07-15T02:11:28.667Z,1011.32
2018-07-15T02:12:28.653Z,1011.32
2018-07-15T02:13:28.642Z,1011.31
2018-07-15T02:14:28.636Z,1011.29
2018-07-15T02:15:28.624Z,1011.30
2018-07-15T02:16:28.630Z,1011.28
2018-07-15T02:17:28.599Z,1011.28
2018-07-15T02:18:28.593Z,1011.29
2018-07-15T02:19:28.575Z,1011.24
2018-07-15T02:20:28.567Z,1011.34
2018-07-15T02:21:28.557Z,1011.32
2018-07-15T02:22:28.569Z,1011.36
2018-07-15T02:23:28.543Z,1011.35
2018-07-15T02:24:28.522Z,1011.37
2018-07-15T02:25:28.511Z,1011.40
2018-07-15T02:26:28.501Z,1011.40
2018-07-15T02:27:28.515Z,1011.42
2018-07-15T02:28:28.498Z,1011.44
2018-07-15T02:29:28.473Z,1011.46
2018-07-15T02:30:28.455Z,1011.42
2018-07-15T02:31:28.448Z,1011.43
2018-07-15T02:32:28.443Z,1011.42
2018-07-15T02:33:28.467Z,1011.37
2018-07-15T02:34:28.414Z,1011.42
2018-07-15T02:35:28.407Z,1011.41
2018-07-15T02:36:28.390Z,1011.41
2018-07-15T02:37:28.378Z,1011.42
2018-07-15T02:38:28.368Z,1011.40
2018-07-15T02:39:28.380Z,1011.43
2018-07-15T02:40:28.349Z,1011.41
2018-07-15T02:41:28.337Z,1011.40
2018-07-15T02:42:28.327Z,1011.41
2018-07-15T02:43:28.313Z,1011.37
2018-07-15T02:44:28.325Z,1011.41
2018-07-15T02:45:28.291Z,1011.37
2018-07-15T02:46:28.302Z,1011.39
2018-07-15T02:47:28.268Z,1011.40
2018-07-15T02:48:28.264Z,1011.41
2018-07-15T02:49:28.252Z,1011.43
2018-07-15T02:50:28.254Z,1011.44
2018-07-15T02:51:28.229Z,1011.43
2018-07-15T02:52:28.216Z,1011.46
2018-07-15T02:53:28.206Z,1011.42
2018-07-15T02:54:28.191Z,1011.46
2018-07-15T02:55:28.210Z,1011.43
2018-07-15T02:56:28.197Z,1011.42
2018-07-15T02:57:28.158Z,1011.41
2018-07-15T02:58:28.180Z,1011.40
2018-07-15T02:59:28.142Z,1011.41
2018-07-15T03:00:28.129Z,1011.51
2018-07-15T03:01:28.166Z,1011.42
2018-07-15T03:02:28.107Z,1011.41
2018-07-15T03:03:28.095Z,1011.42
2018-07-15T03:04:28.083Z,1011.44
2018-07-15T03:05:28.072Z,1011.42
2018-07-15T03:06:28.070Z,1011.42
2018-07-15T03:07:28.065Z,1011.43
2018-07-15T03:08:28.043Z,1011.37
2018-07-15T03:09:28.045Z,1011.42
2018-07-15T03:10:28.050Z,1011.36
2018-07-15T03:11:28.010Z,1011.31
2018-07-15T03:12:28.026Z,1011.34
2018-07-15T03:13:27.984Z,1011.38
2018-07-15T03:14:27.973Z,1011.39
2018-07-15T03:15:27.966Z,1011.39
2018-07-15T03:16:27.951Z,1011.41
2018-07-15T03:17:27.995Z,1011.40
2018-07-15T03:18:27.955Z,1011.42
2018-07-15T03:19:27.946Z,1011.38
2018-07-15T03:20:27.906Z,1011.38
2018-07-15T03:21:27.898Z,1011.42
2018-07-15T03:22:27.884Z,1011.35
2018-07-15T03:23:27.873Z,1011.33
2018-07-15T03:24:27.882Z,1011.35
2018-07-15T03:25:27.852Z,1011.32
2018-07-15T03:26:27.843Z,1011.37
2018-07-15T03:27:27.831Z,1011.34
2018-07-15T03:28:27.822Z,1011.39
2018-07-15T03:29:27.865Z,1011.37
2018-07-15T03:30:27.795Z,1011.38
2018-07-15T03:31:27.795Z,1011.36
2018-07-15T03:32:27.791Z,1011.36
2018-07-15T03:33:27.763Z,1011.38
2018-07-15T03:34:27.752Z,1011.33
2018-07-15T03:35:27.765Z,1011.30
2018-07-15T03:36:27.734Z,1011.28
2018-07-15T03:37:27.723Z,1011.28
2018-07-15T03:38:27.708Z,1011.29
2018-07-15T03:39:27.698Z,1011.33
2018-07-15T03:40:27.686Z,1011.28
2018-07-15T03:41:27.707Z,1011.31
2018-07-15T03:42:27.682Z,1011.28
2018-07-15T03:43:27.655Z,1011.27
2018-07-15T03:44:27.643Z,1011.30
2018-07-15T03:45:27.631Z,1011.27
2018-07-15T03:46:27.621Z,1011.26
2018-07-15T03:47:27.646Z,1011.27
2018-07-15T03:48:27.595Z,1011.28
2018-07-15T03:49:27.586Z,1011.25
2018-07-15T03:50:27.595Z,1011.23
2018-07-15T03:51:27.568Z,1011.27
2018-07-15T03:52:27.554Z,1011.21
2018-07-15T03:53:27.561Z,1011.18
2018-07-15T03:54:27.531Z,1011.19
2018-07-15T03:55:27.525Z,1011.25
2018-07-15T03:56:27.505Z,1011.25
2018-07-15T03:57:27.503Z,1011.23
2018-07-15T03:58:27.487Z,1011.24
2018-07-15T03:59:27.486Z,1011.25
2018-07-15T04:00:27.460Z,1011.26
2018-07-15T04:01:27.453Z,1011.26
2018-07-15T04:02:27.441Z,1011.28
2018-07-15T04:03:27.441Z,1011.22
2018-07-15T04:04:27.443Z,1011.25
2018-07-15T04:05:27.412Z,1011.24
2018-07-15T04:06:27.392Z,1011.22
2018-07-15T04:07:27.386Z,1011.24
2018-07-15T04:08:27.408Z,1011.17
2018-07-15T04:09:27.361Z,1011.16
2018-07-15T04:10:27.374Z,1011.20
2018-07-15T04:11:27.338Z,1011.17
2018-07-15T04:12:27.327Z,1011.21
2018-07-15T04:13:27.316Z,1011.19
2018-07-15T04:14:27.309Z,1011.22
2018-07-15T04:15:27.295Z,1011.22
2018-07-15T04:16:27.301Z,1011.21
2018-07-15T04:17:27.276Z,1011.12
2018-07-15T04:18:27.270Z,1011.14
2018-07-15T04:19:27.255Z,1011.15
2018-07-15T04:20:27.240Z,1011.15
2018-07-15T04:21:27.263Z,1011.16
2018-07-15T04:22:27.217Z,1011.23
2018-07-15T04:23:27.204Z,1011.18
2018-07-15T04:24:27.196Z,1011.15
2018-07-15T04:25:27.185Z,1011.14
2018-07-15T04:26:27.173Z,1011.16
2018-07-15T04:27:27.196Z,1011.16
2018-07-15T04:28:27.150Z,1011.15
2018-07-15T04:29:27.143Z,1011.13
2018-07-15T04:30:27.132Z,1011.13
2018-07-15T04:31:27.128Z,1011.13
2018-07-15T04:32:27.111Z,1011.12
2018-07-15T04:33:27.111Z,1011.11
2018-07-15T04:34:27.087Z,1011.13
2018-07-15T04:35:27.081Z,1011.13
2018-07-15T04:36:27.070Z,1011.09
2018-07-15T04:37:27.051Z,1011.15
2018-07-15T04:38:27.076Z,1011.12
2018-07-15T04:39:27.030Z,1011.15
2018-07-15T04:40:27.023Z,1011.11
2018-07-15T04:41:27.026Z,1011.09
2018-07-15T04:42:27.004Z,1011.16
2018-07-15T04:43:27.021Z,1011.12
2018-07-15T04:44:26.993Z,1011.14
2018-07-15T04:45:26.969Z,1011.16
2018-07-15T04:46:26.953Z,1011.15
2018-07-15T04:47:26.946Z,1011.12
2018-07-15T04:48:26.930Z,1011.18
2018-07-15T04:49:26.919Z,1011.16
2018-07-15T04:50:26.926Z,1011.17
2018-07-15T04:51:26.897Z,1011.19
2018-07-15T04:52:26.890Z,1011.22
2018-07-15T04:53:26.884Z,1011.18
2018-07-15T04:54:26.884Z,1011.25
2018-07-15T04:55:26.885Z,1011.22
2018-07-15T04:56:26.843Z,1011.24
2018-07-15T04:57:26.844Z,1011.25
2018-07-15T04:58:26.827Z,1011.23
2018-07-15T04:59:26.813Z,1011.25
2018-07-15T05:00:26.806Z,1011.22
2018-07-15T05:01:26.829Z,1011.23
2018-07-15T05:02:26.781Z,1011.25
2018-07-15T05:03:26.765Z,1011.21
2018-07-15T05:04:26.775Z,1011.24
2018-07-15T05:05:26.743Z,1011.24
2018-07-15T05:06:26.734Z,1011.27
2018-07-15T05:07:26.741Z,1011.21
2018-07-15T05:08:26.710Z,1011.22
2018-07-15T05:09:26.700Z,1011.23
2018-07-15T05:10:26.695Z,1011.23
2018-07-15T05:11:26.678Z,1011.22
2018-07-15T05:12:26.666Z,1011.23
2018-07-15T05:13:26.667Z,1011.20
2018-07-15T05:14:26.642Z,1011.19
2018-07-15T05:15:26.646Z,1011.22
2018-07-15T05:16:26.630Z,1011.23
2018-07-15T05:17:26.612Z,1011.28
2018-07-15T05:18:26.646Z,1011.28
2018-07-15T05:19:26.588Z,1011.24
2018-07-15T05:20:26.583Z,1011.28
2018-07-15T05:21:26.571Z,1011.26
2018-07-15T05:22:26.556Z,1011.25
2018-07-15T05:23:26.545Z,1011.26
2018-07-15T05:24:26.558Z,1011.28
2018-07-15T05:25:26.549Z,1011.28
2018-07-15T05:26:26.513Z,1011.29
2018-07-15T05:27:26.500Z,1011.22
2018-07-15T05:28:26.491Z,1011.28
2018-07-15T05:29:26.479Z,1011.23
2018-07-15T05:30:26.488Z,1011.22
2018-07-15T05:31:26.462Z,1011.26
2018-07-15T05:32:26.446Z,1011.29
2018-07-15T05:33:26.447Z,1011.30
2018-07-15T05:34:26.427Z,1011.32
2018-07-15T05:35:26.445Z,1011.30
2018-07-15T05:36:26.406Z,1011.31
2018-07-15T05:37:26.400Z,1011.33
2018-07-15T05:38:26.395Z,1011.36
2018-07-15T05:39:26.378Z,1011.42
2018-07-15T05:40:26.361Z,1011.41
2018-07-15T05:41:26.371Z,1011.42
2018-07-15T05:42:26.340Z,1011.42
2018-07-15T05:43:26.328Z,1011.38
2018-07-15T05:44:26.320Z,1011.39
2018-07-15T05:45:26.308Z,1011.40
2018-07-15T05:46:26.295Z,1011.40
2018-07-15T05:47:26.306Z,1011.39
2018-07-15T05:48:26.300Z,1011.40
2018-07-15T05:49:26.266Z,1011.40
2018-07-15T05:50:26.255Z,1011.39
2018-07-15T05:51:26.243Z,1011.40
2018-07-15T05:52:26.259Z,1011.42
2018-07-15T05:53:26.222Z,1011.41
2018-07-15T05:54:26.215Z,1011.39
2018-07-15T05:55:26.200Z,1011.42
2018-07-15T05:56:26.191Z,1011.44
2018-07-15T05:57:26.180Z,1011.47
2018-07-15T05:58:26.219Z,1011.45
2018-07-15T05:59:26.159Z,1011.47
2018-07-15T06:00:26.150Z,1011.46
2018-07-15T06:01:26.142Z,1011.49
2018-07-15T06:02:26.130Z,1011.55
2018-07-15T06:03:26.133Z,1011.58
2018-07-15T06:04:26.125Z,1011.59
2018-07-15T06:05:26.098Z,1011.52
2018-07-15T06:06:26.094Z,1011.58
2018-07-15T06:07:26.077Z,1011.55
2018-07-15T06:08:26.064Z,1011.56
2018-07-15T06:09:26.082Z,1011.54
2018-07-15T06:10:26.059Z,1011.56
2018-07-15T06:11:26.054Z,1011.56
2018-07-15T06:12:26.027Z,1011.51
2018-07-15T06:13:26.013Z,1011.54
2018-07-15T06:14:26.001Z,1011.56
2018-07-15T06:15:26.020Z,1011.57
2018-07-15T06:16:25.979Z,1011.50
2018-07-15T06:17:25.966Z,1011.49
2018-07-15T06:18:25.957Z,1011.53
2018-07-15T06:19:25.945Z,1011.51
2018-07-15T06:20:25.936Z,1011.57
2018-07-15T06:21:25.974Z,1011.53
2018-07-15T06:22:25.920Z,1011.55
2018-07-15T06:23:25.905Z,1011.53
2018-07-15T06:24:25.910Z,1011.54
2018-07-15T06:25:25.886Z,1011.56
2018-07-15T06:26:25.874Z,1011.52
2018-07-15T06:27:25.880Z,1011.52
2018-07-15T06:28:25.856Z,1011.49
2018-07-15T06:29:25.843Z,1011.48
2018-07-15T06:30:25.833Z,1011.51
2018-07-15T06:31:25.822Z,1011.53
2018-07-15T06:32:25.832Z,1011.56
2018-07-15T06:33:25.803Z,1011.51
2018-07-15T06:34:25.813Z,1011.52
2018-07-15T06:35:25.784Z,1011.47
2018-07-15T06:36:25.773Z,1011.50
2018-07-15T06:37:25.763Z,1011.55
2018-07-15T06:38:25.776Z,1011.51
2018-07-15T06:39:25.740Z,1011.53
2018-07-15T06:40:25.729Z,1011.52
2018-07-15T06:41:25.727Z,1011.56
2018-07-15T06:42:25.711Z,1011.51
2018-07-15T06:43:25.707Z,1011.57
2018-07-15T06:44:25.703Z,1011.53
2018-07-15T06:45:25.681Z,1011.55
2018-07-15T06:46:25.667Z,1011.55
2018-07-15T06:47:25.660Z,1011.53
2018-07-15T06:48:25.648Z,1011.54
2018-07-15T06:49:25.678Z,1011.55
2018-07-15T06:50:25.628Z,1011.60
2018-07-15T06:51:25.616Z,1011.55
2018-07-15T06:54:07.644Z,1011.60
2018-07-15T06:54:33.846Z,1011.59
2018-07-15T06:55:33.792Z,1011.63
2018-07-15T06:56:33.783Z,1011.59
2018-07-15T06:57:33.774Z,1011.61
2018-07-15T06:58:33.764Z,1011.61
2018-07-15T06:59:33.790Z,1011.63
2018-07-15T07:00:33.768Z,1011.61
2018-07-15T07:01:33.808Z,1011.58
2018-07-15T07:02:33.723Z,1011.59
2018-07-15T07:03:33.714Z,1011.59
2018-07-15T07:04:33.708Z,1011.62
2018-07-15T07:05:33.695Z,1011.60
2018-07-15T07:06:33.714Z,1011.62
2018-07-15T07:07:33.686Z,1011.64
2018-07-15T07:08:33.665Z,1011.61
2018-07-15T07:09:33.654Z,1011.62
2018-07-15T07:10:33.653Z,1011.65
2018-07-15T07:11:33.659Z,1011.57
2018-07-15T07:12:33.627Z,1011.54
2018-07-15T07:13:33.614Z,1011.61
2018-07-15T07:14:33.608Z,1011.61
2018-07-15T07:15:33.602Z,1011.60
2018-07-15T07:16:33.598Z,1011.60
2018-07-15T07:17:33.603Z,1011.63
2018-07-15T07:18:33.567Z,1011.68
2018-07-15T07:19:33.560Z,1011.66
2018-07-15T07:20:33.595Z,1011.66
2018-07-15T07:21:33.537Z,1011.67
2018-07-15T07:22:33.528Z,1011.69
2018-07-15T07:23:33.537Z,1011.74
2018-07-15T07:24:33.511Z,1011.72
2018-07-15T07:25:33.496Z,1011.71
2018-07-15T07:26:33.511Z,1011.71
2018-07-15T07:27:33.480Z,1011.73
2018-07-15T07:28:33.501Z,1011.73
2018-07-15T07:29:33.456Z,1011.69
2018-07-15T07:30:33.447Z,1011.71
2018-07-15T07:31:33.437Z,1011.71
2018-07-15T07:32:33.430Z,1011.68
2018-07-15T07:33:33.419Z,1011.76
2018-07-15T07:34:33.431Z,1011.73
2018-07-15T07:35:33.400Z,1011.76
2018-07-15T07:36:33.394Z,1011.74
2018-07-15T07:37:33.387Z,1011.75
2018-07-15T07:38:33.389Z,1011.67
2018-07-15T07:39:33.365Z,1011.70
2018-07-15T07:40:33.370Z,1011.67
2018-07-15T07:41:33.352Z,1011.68
2018-07-15T07:42:33.336Z,1011.62
2018-07-15T07:43:33.325Z,1011.60
2018-07-15T07:44:33.314Z,1011.61
2018-07-15T07:45:33.331Z,1011.61
2018-07-15T07:46:33.296Z,1011.58
2018-07-15T07:47:33.287Z,1011.61
2018-07-15T07:48:33.276Z,1011.63
2018-07-15T07:49:33.276Z,1011.61
2018-07-15T07:50:33.261Z,1011.62
2018-07-15T07:51:33.266Z,1011.66
2018-07-15T07:52:33.243Z,1011.66
2018-07-15T07:53:33.232Z,1011.63
2018-07-15T07:54:33.220Z,1011.66
2018-07-15T07:55:33.236Z,1011.60
2018-07-15T07:56:33.203Z,1011.61
2018-07-15T07:57:33.199Z,1011.64
2018-07-15T07:58:33.185Z,1011.66
2018-07-15T07:59:33.196Z,1011.61
2018-07-15T08:00:33.165Z,1011.61
2018-07-15T08:01:33.184Z,1011.58
2018-07-15T08:02:33.149Z,1011.58
2018-07-15T08:03:33.138Z,1011.55
2018-07-15T08:04:33.129Z,1011.56
2018-07-15T08:05:33.120Z,1011.57
2018-07-15T08:06:33.109Z,1011.58
2018-07-15T08:07:33.124Z,1011.61
2018-07-15T08:08:33.092Z,1011.64
2018-07-15T08:09:33.103Z,1011.59
2018-07-15T08:10:33.074Z,1011.61
2018-07-15T08:11:33.071Z,1011.57
2018-07-15T08:12:33.081Z,1011.61
2018-07-15T08:13:33.048Z,1011.59
2018-07-15T08:14:33.040Z,1011.52
2018-07-15T08:15:33.033Z,1011.55
2018-07-15T08:16:33.033Z,1011.57
2018-07-15T08:17:33.017Z,1011.56
2018-07-15T08:18:33.032Z,1011.55
2018-07-15T08:19:32.996Z,1011.56
2018-07-15T08:20:32.985Z,1011.59
2018-07-15T08:21:32.994Z,1011.58
2018-07-15T08:22:33.023Z,1011.62
2018-07-15T08:23:32.961Z,1011.60
2018-07-15T08:24:32.977Z,1011.63
2018-07-15T08:25:32.946Z,1011.66
2018-07-15T08:26:32.939Z,1011.62
2018-07-15T08:27:32.926Z,1011.60
2018-07-15T08:28:32.993Z,1011.62
2018-07-15T08:29:32.908Z,1011.64
2018-07-15T08:30:32.917Z,1011.62
2018-07-15T08:31:32.891Z,1011.62
2018-07-15T08:32:32.892Z,1011.60
2018-07-15T08:33:32.873Z,1011.59
2018-07-15T08:34:32.865Z,1011.61
2018-07-15T08:35:32.887Z,1011.67
2018-07-15T08:36:32.850Z,1011.64
2018-07-15T08:37:32.838Z,1011.65
2018-07-15T08:38:32.830Z,1011.60
2018-07-15T08:39:32.824Z,1011.64
2018-07-15T08:40:32.838Z,1011.60
2018-07-15T08:41:32.837Z,1011.60
2018-07-15T08:42:32.813Z,1011.57
2018-07-15T08:43:32.791Z,1011.61
2018-07-15T08:44:32.785Z,1011.58
2018-07-15T08:45:32.776Z,1011.65
2018-07-15T08:46:32.764Z,1011.57
2018-07-15T08:47:32.773Z,1011.57
2018-07-15T08:48:32.747Z,1011.56
2018-07-15T08:49:32.738Z,1011.55
2018-07-15T08:50:32.739Z,1011.55
2018-07-15T08:51:32.750Z,1011.54
2018-07-15T08:52:32.742Z,1011.59
2018-07-15T08:53:32.706Z,1011.59
2018-07-15T08:54:32.701Z,1011.57
2018-07-15T08:55:32.691Z,1011.53
2018-07-15T08:56:32.686Z,1011.57
2018-07-15T08:57:32.678Z,1011.54
2018-07-15T08:58:32.688Z,1011.54
2018-07-15T08:59:32.658Z,1011.51
2018-07-15T09:00:32.649Z,1011.49
2018-07-15T09:01:32.640Z,1011.51
2018-07-15T09:02:32.651Z,1011.52
2018-07-15T09:03:32.641Z,1011.53
2018-07-15T09:04:32.635Z,1011.52
2018-07-15T09:05:32.613Z,1011.53
2018-07-15T09:06:32.602Z,1011.43
2018-07-15T09:07:32.594Z,1011.43
2018-07-15T09:08:32.589Z,1011.40
2018-07-15T09:09:32.720Z,1011.42
2018-07-15T09:10:32.573Z,1011.41
2018-07-15T09:11:32.561Z,1011.42
2018-07-15T09:12:32.605Z,1011.40
2018-07-15T09:13:32.550Z,1011.38
2018-07-15T09:14:32.682Z,1011.37
2018-07-15T09:15:32.556Z,1011.41
2018-07-15T09:16:32.532Z,1011.38
2018-07-15T09:17:32.515Z,1011.42
2018-07-15T09:18:32.506Z,1011.43
2018-07-15T09:19:32.501Z,1011.39
2018-07-15T09:20:32.489Z,1011.40
2018-07-15T09:21:32.498Z,1011.39
2018-07-15T09:22:32.478Z,1011.40
2018-07-15T09:23:32.466Z,1011.40
2018-07-15T09:24:32.458Z,1011.41
2018-07-15T09:25:32.450Z,1011.37
2018-07-15T09:26:32.474Z,1011.41
2018-07-15T09:27:32.435Z,1011.38
2018-07-15T09:28:32.427Z,1011.43
2018-07-15T09:29:32.422Z,1011.36
2018-07-15T09:30:32.410Z,1011.38
2018-07-15T09:31:32.404Z,1011.41
2018-07-15T09:32:32.445Z,1011.43
2018-07-15T09:33:32.389Z,1011.40
2018-07-15T09:34:32.376Z,1011.43
2018-07-15T09:35:32.432Z,1011.45
2018-07-15T09:36:32.369Z,1011.45
2018-07-15T09:37:32.354Z,1011.41
2018-07-15T09:38:32.366Z,1011.38
2018-07-15T09:39:32.339Z,1011.39
2018-07-15T09:40:32.332Z,1011.40
2018-07-15T09:41:32.323Z,1011.38
2018-07-15T09:42:32.337Z,1011.42
2018-07-15T09:43:32.337Z,1011.44
2018-07-15T09:44:32.323Z,1011.43
2018-07-15T09:45:32.294Z,1011.45
2018-07-15T09:46:32.288Z,1011.49
2018-07-15T09:47:32.281Z,1011.47
2018-07-15T09:48:32.274Z,1011.43
2018-07-15T09:49:32.288Z,1011.43
2018-07-15T09:50:32.257Z,1011.42
2018-07-15T09:51:32.252Z,1011.43
2018-07-15T09:52:32.259Z,1011.39
2018-07-15T09:53:32.239Z,1011.38
2018-07-15T09:54:32.228Z,1011.35
2018-07-15T09:55:32.257Z,1011.37
2018-07-15T09:56:32.216Z,1011.38
2018-07-15T09:57:32.211Z,1011.35
2018-07-15T09:58:32.199Z,1011.41
2018-07-15T09:59:32.196Z,1011.39
2018-07-15T10:00:32.183Z,1011.32
2018-07-15T10:01:32.193Z,1011.33
2018-07-15T10:02:32.172Z,1011.33
2018-07-15T10:03:32.178Z,1011.36
2018-07-15T10:04:32.160Z,1011.34
2018-07-15T10:05:32.149Z,1011.37
2018-07-15T10:06:32.162Z,1011.36
2018-07-15T10:07:32.178Z,1011.31
2018-07-15T10:08:32.125Z,1011.29
2018-07-15T10:09:32.122Z,1011.32
2018-07-15T10:10:32.196Z,1011.34
2018-07-15T10:11:32.105Z,1011.29
2018-07-15T10:12:32.129Z,1011.25
2018-07-15T10:13:32.091Z,1011.27
2018-07-15T10:14:32.079Z,1011.25
2018-07-15T10:15:32.071Z,1011.21
2018-07-15T10:16:32.063Z,1011.19
2018-07-15T10:17:32.056Z,1011.24
2018-07-15T10:18:32.119Z,1011.21
2018-07-15T10:19:32.044Z,1011.21
2018-07-15T10:20:32.033Z,1011.21
2018-07-15T10:21:32.025Z,1011.23
2018-07-15T10:22:32.023Z,1011.22
2018-07-15T10:23:32.033Z,1011.23
2018-07-15T10:24:32.005Z,1011.18
2018-07-15T10:25:32.010Z,1011.22
2018-07-15T10:26:32.029Z,1011.26
2018-07-15T10:27:31.982Z,1011.20
2018-07-15T10:28:31.974Z,1011.17
2018-07-15T10:29:32.004Z,1011.16
2018-07-15T10:30:31.962Z,1011.11
2018-07-15T10:31:31.957Z,1011.18
2018-07-15T10:32:31.950Z,1011.15
2018-07-15T10:33:31.938Z,1011.17
2018-07-15T10:34:31.937Z,1011.12
2018-07-15T10:35:31.948Z,1011.11
2018-07-15T10:36:31.917Z,1011.15
2018-07-15T10:37:31.909Z,1011.09
2018-07-15T10:38:31.902Z,1011.09
2018-07-15T10:39:31.894Z,1011.05
2018-07-15T10:40:31.908Z,1011.03
2018-07-15T10:41:31.886Z,1011.06
2018-07-15T10:42:31.871Z,1011.04
2018-07-15T10:43:31.867Z,1011.03
2018-07-15T10:44:31.922Z,1011.03
2018-07-15T10:45:31.850Z,1011.01
2018-07-15T10:46:31.861Z,1011.02
2018-07-15T10:47:31.832Z,1011.08
2018-07-15T10:48:31.828Z,1011.07
2018-07-15T10:49:31.819Z,1011.03
2018-07-15T10:50:31.808Z,1011.03
2018-07-15T10:51:31.807Z,1011.00
2018-07-15T10:52:31.812Z,1010.97
2018-07-15T10:53:31.791Z,1010.99
2018-07-15T10:54:31.780Z,1010.95
2018-07-15T10:55:31.774Z,1010.97
2018-07-15T10:56:31.765Z,1011.02
2018-07-15T10:57:31.778Z,1010.94
2018-07-15T10:58:31.754Z,1010.91
2018-07-15T10:59:31.770Z,1010.96
2018-07-15T11:00:31.738Z,1010.90
2018-07-15T11:01:31.730Z,1010.91
2018-07-15T11:02:31.725Z,1010.87
2018-07-15T11:03:31.734Z,1010.86
2018-07-15T11:04:31.730Z,1010.84
2018-07-15T11:05:31.699Z,1010.82
2018-07-15T11:06:31.695Z,1010.86
2018-07-15T11:07:31.688Z,1010.84
2018-07-15T11:08:31.679Z,1010.81
2018-07-15T11:09:31.721Z,1010.85
2018-07-15T11:10:31.666Z,1010.80
2018-07-15T11:11:31.656Z,1010.84
2018-07-15T11:12:31.650Z,1010.80
2018-07-15T11:13:31.647Z,1010.79
2018-07-15T11:14:31.648Z,1010.77
2018-07-15T11:15:31.642Z,1010.74
2018-07-15T11:16:31.636Z,1010.74
2018-07-15T11:17:31.617Z,1010.74
2018-07-15T11:18:31.624Z,1010.76
2018-07-15T11:19:31.614Z,1010.77
2018-07-15T11:20:31.615Z,1010.68
2018-07-15T11:21:31.583Z,1010.71
2018-07-15T11:22:31.677Z,1010.72
2018-07-15T11:23:31.573Z,1010.79
2018-07-15T11:24:31.561Z,1010.73
2018-07-15T11:25:31.553Z,1010.71
2018-07-15T11:26:31.572Z,1010.68
2018-07-15T11:27:31.536Z,1010.64
2018-07-15T11:28:31.529Z,1010.61
2018-07-15T11:29:31.535Z,1010.61
2018-07-15T11:30:31.517Z,1010.61
2018-07-15T11:31:31.659Z,1010.60
2018-07-15T11:32:31.538Z,1010.61
2018-07-15T11:33:31.491Z,1010.54
2018-07-15T11:34:31.488Z,1010.57
2018-07-15T11:35:31.478Z,1010.54
2018-07-15T11:36:31.474Z,1010.50
2018-07-15T11:37:31.489Z,1010.47
2018-07-15T11:38:31.460Z,1010.49
2018-07-15T11:39:31.467Z,1010.48
2018-07-15T11:40:31.446Z,1010.51
2018-07-15T11:41:31.437Z,1010.49
2018-07-15T11:42:31.431Z,1010.48
2018-07-15T11:43:31.450Z,1010.49
2018-07-15T11:44:31.416Z,1010.45
2018-07-15T11:45:31.406Z,1010.44
2018-07-15T11:46:31.399Z,1010.46
2018-07-15T11:47:31.390Z,1010.51
2018-07-15T11:48:31.382Z,1010.42
2018-07-15T11:49:31.407Z,1010.41
2018-07-15T11:50:31.367Z,1010.41
2018-07-15T11:51:31.363Z,1010.36
2018-07-15T11:52:31.351Z,1010.33
2018-07-15T11:53:31.344Z,1010.39
2018-07-15T11:54:31.453Z,1010.33
2018-07-15T11:55:31.329Z,1010.33
2018-07-15T11:56:31.319Z,1010.25
2018-07-15T11:57:31.315Z,1010.22
2018-07-15T11:58:31.304Z,1010.15
2018-07-15T11:59:31.316Z,1010.11
2018-07-15T12:00:31.313Z,1009.98
2018-07-15T12:01:31.283Z,1009.88
2018-07-15T12:02:31.270Z,1009.77
2018-07-15T12:03:31.378Z,1009.65
2018-07-15T12:04:31.251Z,1009.62
2018-07-15T12:05:31.243Z,1009.58
2018-07-15T12:06:31.248Z,1009.50